createdAt,value
2018-11-04T00:00:33.065Z,24.40
2018-11-04T00:01:36.433Z,25.82
2018-11-04T00:02:39.740Z,24.43
2018-11-04T00:03:43.103Z,21.85
2018-11-04T00:04:46.428Z,23.57
2018-11-04T00:05:49.878Z,24.15
2018-11-04T00:06:53.201Z,22.77
2018-11-04T00:07:56.598Z,22.50
2018-11-04T00:10:10.435Z,24.23
2018-11-04T00:11:13.787Z,21.97
2018-11-04T00:12:17.217Z,23.00
2018-11-04T00:13:20.856Z,22.42
2018-11-04T00:14:24.095Z,23.75
2018-11-04T00:15:27.411Z,22.67
2018-11-04T00:16:30.743Z,23.15
2018-11-04T00:17:34.107Z,21.30
2018-11-04T00:18:37.438Z,24.37
2018-11-04T00:19:40.771Z,23.10
2018-11-04T00:20:44.108Z,23.00
2018-11-04T00:21:47.451Z,23.60
2018-11-04T00:22:50.811Z,24.00
2018-11-04T00:23:54.208Z,21.62
2018-11-04T00:24:57.580Z,22.93
2018-11-04T00:26:00.939Z,24.95
2018-11-04T00:27:04.675Z,22.00
2018-11-04T00:28:07.974Z,22.52
2018-11-04T00:29:11.305Z,22.25
2018-11-04T00:30:15.533Z,22.50
2018-11-04T00:31:18.888Z,24.12
2018-11-04T00:32:22.232Z,23.62
2018-11-04T00:33:25.592Z,24.30
2018-11-04T00:34:28.910Z,22.70
2018-11-04T00:35:32.252Z,22.80
2018-11-04T00:36:35.632Z,23.77
2018-11-04T00:37:39.192Z,23.83
2018-11-04T00:38:42.551Z,22.75
2018-11-04T00:39:45.871Z,22.30
2018-11-04T00:40:49.258Z,20.05
2018-11-04T00:41:52.579Z,20.02
2018-11-04T00:42:55.883Z,20.60
2018-11-04T00:43:59.212Z,21.02
2018-11-04T00:45:02.575Z,21.35
2018-11-04T00:46:05.883Z,21.33
2018-11-04T00:47:09.199Z,20.45
2018-11-04T00:48:12.531Z,20.37
2018-11-04T00:49:15.867Z,20.97
2018-11-04T00:50:19.170Z,21.87
2018-11-04T00:51:22.494Z,20.17
2018-11-04T00:52:25.908Z,21.40
2018-11-04T00:53:29.223Z,21.05
2018-11-04T00:54:32.535Z,21.90
2018-11-04T00:55:35.851Z,21.17
2018-11-04T00:56:39.151Z,20.90
2018-11-04T00:57:42.519Z,20.30
2018-11-04T00:58:45.843Z,21.62
2018-11-04T00:59:49.155Z,21.50
2018-11-04T01:00:58.936Z,20.70
2018-11-04T01:02:02.299Z,21.20
2018-11-04T01:03:05.688Z,20.88
2018-11-04T01:04:09.010Z,21.87
2018-11-04T01:05:12.326Z,21.12
2018-11-04T01:06:15.691Z,20.57
2018-11-04T01:07:19.022Z,19.73
2018-11-04T01:08:22.345Z,20.72
2018-11-04T01:09:25.651Z,20.77
2018-11-04T01:10:29.003Z,19.80
2018-11-04T01:11:32.335Z,19.75
2018-11-04T01:12:35.662Z,20.85
2018-11-04T01:13:38.968Z,18.40
2018-11-04T01:14:42.321Z,20.15
2018-11-04T01:15:45.688Z,20.35
2018-11-04T01:16:49.011Z,20.23
2018-11-04T01:17:52.315Z,20.23
2018-11-04T01:18:55.626Z,19.30
2018-11-04T01:19:59.047Z,19.90
2018-11-04T01:21:02.457Z,20.23
2018-11-04T01:22:05.781Z,19.75
2018-11-04T01:23:09.107Z,19.87
2018-11-04T01:24:12.523Z,20.05
2018-11-04T01:25:15.838Z,19.85
2018-11-04T01:26:19.191Z,20.25
2018-11-04T01:27:22.580Z,20.12
2018-11-04T01:28:25.903Z,19.65
2018-11-04T01:29:29.223Z,20.23
2018-11-04T01:30:32.543Z,19.35
2018-11-04T01:31:35.894Z,20.85
2018-11-04T01:32:39.244Z,21.82
2018-11-04T01:33:42.726Z,19.05
2018-11-04T01:34:46.068Z,19.62
2018-11-04T01:35:49.389Z,20.60
2018-11-04T01:36:52.767Z,19.52
2018-11-04T01:37:56.088Z,20.60
2018-11-04T01:38:59.409Z,18.57
2018-11-04T01:40:02.759Z,19.52
2018-11-04T01:41:06.107Z,20.50
2018-11-04T01:42:09.448Z,19.23
2018-11-04T01:43:12.778Z,20.43
2018-11-04T01:44:16.094Z,18.77
2018-11-04T01:45:19.450Z,18.07
2018-11-04T01:46:22.772Z,20.10
2018-11-04T01:47:26.099Z,19.15
2018-11-04T01:48:29.402Z,18.07
2018-11-04T01:49:32.720Z,18.17
2018-11-04T01:50:36.059Z,18.75
2018-11-04T01:51:39.369Z,19.35
2018-11-04T01:52:42.678Z,17.98
2018-11-04T01:53:46.033Z,17.98
2018-11-04T01:54:49.382Z,18.82
2018-11-04T01:55:52.696Z,18.67
2018-11-04T01:56:56.012Z,20.72
2018-11-04T01:57:59.332Z,19.12
2018-11-04T01:59:03.008Z,19.70
2018-11-04T02:00:10.278Z,19.17
2018-11-04T02:01:13.631Z,18.92
2018-11-04T02:02:16.979Z,20.17
2018-11-04T02:03:20.287Z,18.70
2018-11-04T02:04:23.635Z,18.12
2018-11-04T02:05:26.941Z,19.95
2018-11-04T02:06:30.254Z,19.23
2018-11-04T02:07:33.596Z,18.92
2018-11-04T02:08:36.907Z,17.90
2018-11-04T02:09:40.262Z,19.10
2018-11-04T02:10:43.572Z,20.08
2018-11-04T02:11:46.916Z,18.95
2018-11-04T02:12:50.228Z,19.15
2018-11-04T02:13:53.583Z,19.85
2018-11-04T02:14:57.052Z,19.67
2018-11-04T02:16:00.395Z,19.40
2018-11-04T02:17:03.756Z,18.60
2018-11-04T02:18:07.079Z,18.87
2018-11-04T02:19:10.416Z,18.48
2018-11-04T02:20:14.128Z,19.37
2018-11-04T02:21:17.443Z,19.30
2018-11-04T02:22:20.762Z,19.60
2018-11-04T02:23:24.105Z,18.98
2018-11-04T02:24:27.414Z,19.42
2018-11-04T02:25:30.752Z,19.73
2018-11-04T02:26:34.055Z,20.72
2018-11-04T02:27:37.398Z,19.85
2018-11-04T02:28:40.711Z,19.48
2018-11-04T02:29:44.023Z,19.02
2018-11-04T02:30:47.363Z,19.90
2018-11-04T02:31:50.674Z,20.20
2018-11-04T02:32:54.078Z,19.52
2018-11-04T02:33:57.420Z,19.60
2018-11-04T02:35:00.811Z,18.80
2018-11-04T02:36:04.157Z,18.57
2018-11-04T02:37:07.504Z,20.25
2018-11-04T02:38:10.827Z,19.05
2018-11-04T02:39:14.147Z,18.98
2018-11-04T02:40:17.502Z,19.95
2018-11-04T02:41:20.827Z,18.55
2018-11-04T02:42:24.139Z,20.17
2018-11-04T02:43:27.503Z,19.75
2018-11-04T02:44:30.896Z,19.52
2018-11-04T02:45:34.243Z,18.42
2018-11-04T02:46:37.597Z,19.00
2018-11-04T02:47:40.903Z,19.87
2018-11-04T02:48:44.227Z,19.73
2018-11-04T02:49:47.576Z,19.80
2018-11-04T02:50:50.896Z,19.62
2018-11-04T02:51:54.223Z,18.10
2018-11-04T02:52:57.549Z,19.10
2018-11-04T02:54:00.891Z,19.82
2018-11-04T02:55:04.312Z,20.35
2018-11-04T02:56:07.684Z,19.98
2018-11-04T02:57:11.011Z,20.92
2018-11-04T02:58:14.340Z,20.45
2018-11-04T02:59:17.659Z,21.57
2018-11-04T03:00:21.007Z,19.60
2018-11-04T03:01:24.355Z,20.68
2018-11-04T03:02:27.679Z,20.50
2018-11-04T03:03:31.065Z,21.30
2018-11-04T03:04:34.419Z,20.80
2018-11-04T03:05:37.759Z,20.85
2018-11-04T03:06:41.099Z,21.17
2018-11-04T03:07:44.467Z,20.37
2018-11-04T03:08:47.830Z,20.52
2018-11-04T03:09:51.187Z,19.73
2018-11-04T03:10:54.507Z,20.88
2018-11-04T03:11:57.831Z,19.80
2018-11-04T03:13:01.148Z,20.30
2018-11-04T03:14:04.521Z,18.75
2018-11-04T03:15:08.028Z,20.10
2018-11-04T03:16:11.353Z,20.88
2018-11-04T03:17:14.677Z,19.85
2018-11-04T03:18:18.071Z,21.17
2018-11-04T03:19:21.400Z,20.70
2018-11-04T03:20:24.720Z,19.20
2018-11-04T03:21:28.066Z,19.05
2018-11-04T03:22:31.412Z,20.68
2018-11-04T03:23:34.782Z,19.92
2018-11-04T03:24:38.183Z,20.15
2018-11-04T03:25:41.468Z,18.85
2018-11-04T03:26:44.879Z,19.65
2018-11-04T03:27:48.237Z,19.60
2018-11-04T03:28:51.581Z,19.40
2018-11-04T03:29:54.956Z,19.50
2018-11-04T03:30:58.301Z,20.27
2018-11-04T03:32:01.640Z,22.37
2018-11-04T03:33:05.242Z,20.10
2018-11-04T03:34:08.563Z,19.00
2018-11-04T03:35:11.927Z,18.48
2018-11-04T03:36:15.251Z,19.45
2018-11-04T03:37:18.567Z,21.82
2018-11-04T03:38:21.884Z,20.40
2018-11-04T03:39:25.247Z,19.17
2018-11-04T03:40:28.587Z,19.37
2018-11-04T03:41:31.914Z,21.27
2018-11-04T03:42:35.251Z,20.15
2018-11-04T03:43:38.629Z,19.95
2018-11-04T03:44:41.980Z,19.37
2018-11-04T03:45:45.300Z,20.30
2018-11-04T03:46:49.628Z,19.62
2018-11-04T03:47:52.950Z,20.68
2018-11-04T03:48:56.282Z,19.75
2018-11-04T03:49:59.646Z,19.12
2018-11-04T03:51:02.959Z,20.00
2018-11-04T03:52:06.480Z,19.62
2018-11-04T03:53:09.826Z,19.95
2018-11-04T03:54:13.164Z,19.50
2018-11-04T03:55:16.500Z,19.62
2018-11-04T03:56:19.817Z,21.05
2018-11-04T03:57:23.125Z,20.75
2018-11-04T03:58:26.476Z,20.23
2018-11-04T03:59:29.788Z,21.10
2018-11-04T04:00:33.191Z,21.20
2018-11-04T04:01:36.529Z,19.57
2018-11-04T04:02:40.031Z,20.88
2018-11-04T04:03:43.344Z,20.82
2018-11-04T04:04:46.677Z,22.07
2018-11-04T04:05:50.016Z,21.57
2018-11-04T04:06:53.368Z,21.45
2018-11-04T04:07:56.763Z,20.60
2018-11-04T04:09:00.084Z,20.48
2018-11-04T04:10:03.454Z,21.80
2018-11-04T04:11:06.855Z,21.12
2018-11-04T04:12:10.176Z,19.75
2018-11-04T04:13:13.492Z,20.55
2018-11-04T04:14:16.799Z,20.35
2018-11-04T04:15:20.125Z,20.35
2018-11-04T04:16:23.535Z,18.75
2018-11-04T04:17:26.860Z,20.10
2018-11-04T04:18:30.179Z,20.95
2018-11-04T04:19:33.524Z,19.77
2018-11-04T04:20:36.860Z,19.75
2018-11-04T04:21:40.182Z,19.25
2018-11-04T04:22:43.496Z,20.80
2018-11-04T04:23:46.871Z,19.23
2018-11-04T04:24:50.196Z,20.97
2018-11-04T04:25:53.514Z,20.60
2018-11-04T04:26:56.835Z,20.82
2018-11-04T04:28:00.147Z,19.40
2018-11-04T04:29:03.529Z,20.45
2018-11-04T04:30:09.178Z,19.07
2018-11-04T04:31:12.486Z,19.30
2018-11-04T04:32:15.804Z,19.62
2018-11-04T04:33:19.127Z,20.35
2018-11-04T04:34:22.471Z,21.50
2018-11-04T04:35:25.797Z,21.10
2018-11-04T04:36:29.123Z,20.57
2018-11-04T04:37:32.467Z,19.30
2018-11-04T04:38:35.843Z,20.08
2018-11-04T04:39:39.180Z,19.32
2018-11-04T04:40:42.527Z,19.55
2018-11-04T04:41:45.907Z,19.57
2018-11-04T04:42:49.220Z,19.30
2018-11-04T04:43:52.531Z,19.82
2018-11-04T04:44:55.880Z,19.85
2018-11-04T04:45:59.202Z,20.23
2018-11-04T04:47:02.589Z,18.65
2018-11-04T04:48:05.946Z,19.77
2018-11-04T04:49:09.295Z,19.57
2018-11-04T04:50:12.639Z,18.80
2018-11-04T04:51:15.944Z,18.45
2018-11-04T04:52:19.323Z,20.30
2018-11-04T04:53:24.775Z,19.40
2018-11-04T04:54:28.102Z,20.08
2018-11-04T04:55:31.413Z,20.65
2018-11-04T04:56:34.719Z,20.55
2018-11-04T04:57:38.079Z,20.55
2018-11-04T04:58:41.395Z,19.95
2018-11-04T04:59:44.723Z,19.65
2018-11-04T05:00:48.041Z,19.90
2018-11-04T05:01:51.355Z,21.05
2018-11-04T05:02:54.699Z,20.90
2018-11-04T05:03:58.015Z,19.90
2018-11-04T05:05:01.341Z,19.70
2018-11-04T05:06:04.679Z,21.02
2018-11-04T05:07:08.006Z,19.27
2018-11-04T05:08:11.324Z,20.45
2018-11-04T05:09:14.695Z,20.55
2018-11-04T05:10:18.005Z,20.97
2018-11-04T05:11:21.397Z,20.57
2018-11-04T05:12:24.706Z,20.43
2018-11-04T05:13:28.021Z,20.55
2018-11-04T05:14:31.341Z,18.37
2018-11-04T05:15:34.659Z,19.02
2018-11-04T05:16:38.000Z,19.60
2018-11-04T05:17:41.307Z,20.00
2018-11-04T05:18:44.630Z,17.55
2018-11-04T05:19:47.951Z,19.37
2018-11-04T05:20:51.262Z,19.80
2018-11-04T05:21:54.607Z,19.12
2018-11-04T05:22:57.911Z,19.02
2018-11-04T05:24:01.343Z,19.12
2018-11-04T05:25:05.465Z,20.08
2018-11-04T05:26:08.865Z,19.75
2018-11-04T05:27:12.199Z,18.52
2018-11-04T05:28:15.556Z,20.12
2018-11-04T05:29:18.880Z,19.12
2018-11-04T05:30:22.201Z,19.87
2018-11-04T05:31:25.558Z,20.15
2018-11-04T05:32:28.988Z,20.77
2018-11-04T05:33:32.307Z,20.52
2018-11-04T05:34:35.634Z,20.60
2018-11-04T05:35:38.943Z,20.72
2018-11-04T05:36:42.286Z,19.60
2018-11-04T05:37:45.615Z,21.30
2018-11-04T05:38:48.959Z,18.52
2018-11-04T05:39:52.270Z,19.75
2018-11-04T05:40:55.812Z,19.67
2018-11-04T05:41:59.198Z,20.10
2018-11-04T05:43:02.507Z,20.10
2018-11-04T05:44:05.855Z,19.95
2018-11-04T05:45:09.465Z,21.70
2018-11-04T05:46:12.775Z,20.80
2018-11-04T05:47:16.107Z,20.10
2018-11-04T05:48:19.419Z,21.50
2018-11-04T05:49:22.767Z,20.52
2018-11-04T05:50:26.072Z,22.02
2018-11-04T05:51:29.377Z,20.30
2018-11-04T05:52:32.696Z,21.30
2018-11-04T05:53:38.998Z,22.05
2018-11-04T05:54:42.348Z,19.60
2018-11-04T05:55:45.669Z,20.92
2018-11-04T05:56:49.009Z,20.97
2018-11-04T05:57:52.324Z,21.12
2018-11-04T05:58:55.678Z,21.15
2018-11-04T05:59:58.999Z,21.77
2018-11-04T06:01:02.364Z,21.00
2018-11-04T06:02:06.203Z,20.27
2018-11-04T06:03:09.543Z,20.90
2018-11-04T06:04:12.863Z,21.10
2018-11-04T06:05:16.180Z,21.45
2018-11-04T06:06:19.523Z,21.77
2018-11-04T06:07:22.837Z,21.30
2018-11-04T06:08:26.196Z,20.17
2018-11-04T06:09:29.569Z,22.42
2018-11-04T06:10:32.883Z,21.10
2018-11-04T06:11:36.218Z,20.25
2018-11-04T06:12:39.543Z,20.62
2018-11-04T06:13:42.876Z,21.10
2018-11-04T06:14:46.232Z,21.15
2018-11-04T06:15:49.584Z,21.82
2018-11-04T06:16:52.903Z,23.50
2018-11-04T06:17:56.224Z,20.50
2018-11-04T06:18:59.556Z,22.00
2018-11-04T06:20:02.887Z,21.10
2018-11-04T06:21:06.456Z,21.62
2018-11-04T06:22:10.031Z,21.93
2018-11-04T06:23:13.353Z,20.17
2018-11-04T06:24:16.683Z,20.43
2018-11-04T06:25:20.007Z,22.02
2018-11-04T06:26:23.362Z,20.45
2018-11-04T06:27:26.681Z,21.40
2018-11-04T06:28:30.119Z,20.25
2018-11-04T06:29:33.460Z,19.02
2018-11-04T06:30:36.807Z,21.80
2018-11-04T06:31:40.165Z,20.62
2018-11-04T06:32:43.879Z,20.65
2018-11-04T06:33:47.244Z,19.37
2018-11-04T06:34:50.561Z,20.20
2018-11-04T06:35:53.945Z,21.10
2018-11-04T06:36:57.268Z,22.95
2018-11-04T06:38:00.615Z,22.02
2018-11-04T06:39:05.030Z,21.62
2018-11-04T06:40:09.159Z,20.82
2018-11-04T06:41:12.527Z,21.37
2018-11-04T06:42:15.803Z,22.05
2018-11-04T06:43:19.151Z,20.72
2018-11-04T06:44:22.456Z,20.40
2018-11-04T06:45:25.783Z,23.15
2018-11-04T06:46:29.127Z,23.07
2018-11-04T06:47:32.473Z,22.95
2018-11-04T06:48:35.837Z,21.40
2018-11-04T06:49:39.193Z,22.37
2018-11-04T06:50:42.535Z,22.82
2018-11-04T06:51:45.871Z,22.35
2018-11-04T06:52:49.253Z,21.37
2018-11-04T06:53:52.598Z,22.82
2018-11-04T06:54:55.911Z,24.65
2018-11-04T06:55:59.226Z,22.58
2018-11-04T06:57:02.539Z,24.63
2018-11-04T06:58:06.408Z,21.80
2018-11-04T06:59:09.760Z,22.95
2018-11-04T07:00:13.080Z,22.42
2018-11-04T07:01:16.427Z,21.57
2018-11-04T07:02:19.751Z,22.55
2018-11-04T07:03:23.059Z,23.70
2018-11-04T07:04:27.755Z,21.75
2018-11-04T07:05:31.071Z,22.45
2018-11-04T07:06:34.379Z,21.93
2018-11-04T07:07:37.701Z,22.17
2018-11-04T07:08:41.051Z,21.30
2018-11-04T07:09:44.385Z,21.52
2018-11-04T07:10:47.731Z,22.32
2018-11-04T07:11:51.075Z,23.00
2018-11-04T07:12:54.427Z,21.90
2018-11-04T07:13:57.746Z,22.65
2018-11-04T07:15:01.064Z,23.10
2018-11-04T07:16:04.404Z,22.85
2018-11-04T07:17:07.724Z,20.97
2018-11-04T07:18:11.060Z,21.35
2018-11-04T07:19:15.155Z,22.55
2018-11-04T07:20:18.470Z,21.75
2018-11-04T07:21:21.818Z,21.62
2018-11-04T07:22:25.119Z,21.33
2018-11-04T07:23:28.451Z,20.82
2018-11-04T07:24:31.766Z,22.42
2018-11-04T07:25:35.121Z,21.07
2018-11-04T07:26:38.468Z,23.80
2018-11-04T07:27:41.804Z,22.85
2018-11-04T07:28:45.138Z,23.35
2018-11-04T07:29:48.454Z,22.05
2018-11-04T07:30:51.771Z,23.57
2018-11-04T07:31:55.131Z,23.45
2018-11-04T07:32:58.478Z,21.85
2018-11-04T07:34:01.796Z,25.37
2018-11-04T07:35:05.607Z,23.83
2018-11-04T07:36:08.941Z,23.87
2018-11-04T07:37:12.284Z,22.22
2018-11-04T07:38:15.591Z,22.90
2018-11-04T07:39:18.956Z,22.75
2018-11-04T07:40:22.926Z,22.67
2018-11-04T07:41:26.331Z,22.82
2018-11-04T07:42:29.784Z,23.05
2018-11-04T07:43:33.108Z,23.60
2018-11-04T07:44:36.494Z,24.23
2018-11-04T07:45:39.811Z,25.62
2018-11-04T07:46:43.127Z,25.37
2018-11-04T07:47:46.448Z,23.98
2018-11-04T07:48:49.868Z,22.90
2018-11-04T07:49:53.276Z,24.27
2018-11-04T07:50:56.601Z,24.00
2018-11-04T07:51:59.924Z,23.10
2018-11-04T07:53:03.248Z,26.45
2018-11-04T07:54:06.660Z,25.35
2018-11-04T07:55:10.258Z,24.95
2018-11-04T07:56:14.068Z,26.23
2018-11-04T07:57:17.401Z,25.50
2018-11-04T07:58:20.756Z,26.82
2018-11-04T07:59:24.085Z,25.12
2018-11-04T08:00:27.442Z,26.05
2018-11-04T08:01:30.811Z,27.05
2018-11-04T08:02:34.172Z,24.95
2018-11-04T08:03:37.505Z,26.20
2018-11-04T08:04:40.839Z,26.68
2018-11-04T08:05:44.192Z,26.87
2018-11-04T08:06:47.520Z,25.00
2018-11-04T08:07:50.867Z,26.50
2018-11-04T08:08:54.192Z,25.97
2018-11-04T08:09:57.524Z,26.00
2018-11-04T08:11:00.913Z,25.57
2018-11-04T08:12:04.341Z,26.95
2018-11-04T08:13:07.660Z,26.30
2018-11-04T08:14:10.975Z,25.95
2018-11-04T08:15:14.404Z,26.15
2018-11-04T08:16:17.769Z,26.73
2018-11-04T08:17:21.135Z,27.20
2018-11-04T08:18:24.464Z,26.68
2018-11-04T08:19:27.788Z,26.30
2018-11-04T08:20:31.108Z,25.80
2018-11-04T08:21:34.438Z,26.00
2018-11-04T08:22:37.815Z,26.20
2018-11-04T08:23:41.140Z,25.02
2018-11-04T08:24:44.460Z,25.30
2018-11-04T08:25:47.819Z,24.82
2018-11-04T08:26:51.171Z,25.25
2018-11-04T08:27:54.566Z,24.45
2018-11-04T08:28:57.855Z,23.40
2018-11-04T08:30:01.180Z,24.37
2018-11-04T08:31:04.550Z,24.25
2018-11-04T08:32:07.887Z,24.63
2018-11-04T08:33:11.248Z,23.45
2018-11-04T08:34:14.627Z,26.25
2018-11-04T08:35:17.972Z,24.57
2018-11-04T08:36:21.323Z,24.55
2018-11-04T08:37:25.182Z,25.20
2018-11-04T08:38:28.535Z,24.05
2018-11-04T08:39:31.950Z,22.98
2018-11-04T08:40:35.212Z,23.55
2018-11-04T08:41:38.763Z,22.52
2018-11-04T08:42:42.108Z,23.32
2018-11-04T08:43:45.476Z,22.48
2018-11-04T08:44:48.809Z,22.17
2018-11-04T08:45:52.213Z,21.40
2018-11-04T08:46:55.544Z,22.27
2018-11-04T08:47:58.880Z,22.13
2018-11-04T08:49:02.207Z,22.95
2018-11-04T08:50:06.980Z,23.25
2018-11-04T08:51:10.308Z,21.97
2018-11-04T08:52:13.666Z,22.75
2018-11-04T08:53:17.028Z,23.25
2018-11-04T08:54:20.391Z,22.40
2018-11-04T08:55:23.747Z,21.80
2018-11-04T08:56:27.076Z,21.12
2018-11-04T08:57:30.425Z,20.88
2018-11-04T08:58:33.756Z,20.70
2018-11-04T08:59:38.168Z,20.92
2018-11-04T09:00:41.474Z,21.07
2018-11-04T09:01:44.808Z,22.10
2018-11-04T09:02:48.150Z,20.70
2018-11-04T09:03:51.479Z,20.60
2018-11-04T09:04:54.807Z,19.17
2018-11-04T09:05:58.129Z,17.20
2018-11-04T09:07:01.468Z,17.20
2018-11-04T09:08:05.064Z,19.80
2018-11-04T09:09:08.419Z,18.85
2018-11-04T09:10:13.845Z,19.23
2018-11-04T09:11:17.258Z,18.70
2018-11-04T09:12:20.616Z,16.52
2018-11-04T09:13:23.935Z,16.87
2018-11-04T09:14:27.321Z,14.85
2018-11-04T09:15:30.613Z,16.32
2018-11-04T09:16:33.931Z,16.62
2018-11-04T09:17:37.283Z,15.18
2018-11-04T09:18:40.742Z,15.13
2018-11-04T09:19:44.099Z,15.20
2018-11-04T09:20:47.432Z,15.48
2018-11-04T09:21:50.878Z,14.73
2018-11-04T09:22:54.147Z,15.05
2018-11-04T09:23:57.479Z,13.85
2018-11-04T09:25:00.788Z,13.28
2018-11-04T09:26:04.334Z,13.85
2018-11-04T09:27:07.655Z,15.90
2018-11-04T09:28:11.007Z,13.38
2018-11-04T09:29:14.434Z,13.20
2018-11-04T09:30:17.795Z,14.28
2018-11-04T09:31:21.163Z,14.47
2018-11-04T09:32:24.483Z,14.95
2018-11-04T09:33:27.843Z,15.20
2018-11-04T09:34:31.213Z,15.50
2018-11-04T09:35:34.750Z,13.98
2018-11-04T09:36:37.960Z,13.60
2018-11-04T09:37:41.259Z,14.68
2018-11-04T09:38:44.574Z,15.80
2018-11-04T09:39:47.919Z,13.43
2018-11-04T09:40:51.239Z,15.30
2018-11-04T09:41:54.575Z,15.25
2018-11-04T09:42:57.894Z,14.60
2018-11-04T09:44:01.243Z,14.73
2018-11-04T09:45:04.768Z,15.55
2018-11-04T09:46:08.125Z,16.65
2018-11-04T09:47:11.503Z,15.85
2018-11-04T09:48:14.879Z,16.05
2018-11-04T09:49:18.203Z,14.35
2018-11-04T09:50:21.539Z,13.80
2018-11-04T09:51:24.909Z,14.20
2018-11-04T09:52:28.232Z,14.30
2018-11-04T09:53:31.563Z,14.38
2018-11-04T09:54:34.908Z,13.68
2018-11-04T09:55:38.311Z,13.68
2018-11-04T09:56:41.698Z,11.63
2018-11-04T09:57:45.007Z,12.37
2018-11-04T09:58:48.340Z,12.55
2018-11-04T09:59:51.668Z,11.97
2018-11-04T10:00:55.048Z,14.30
2018-11-04T10:01:58.431Z,14.45
2018-11-04T10:03:01.754Z,15.00
2018-11-04T10:04:05.503Z,14.65
2018-11-04T10:05:09.719Z,15.70
2018-11-04T10:06:13.067Z,15.75
2018-11-04T10:07:16.491Z,14.43
2018-11-04T10:08:19.830Z,16.62
2018-11-04T10:09:23.225Z,15.98
2018-11-04T10:10:26.555Z,16.32
2018-11-04T10:11:29.887Z,15.70
2018-11-04T10:12:33.219Z,15.43
2018-11-04T10:13:36.531Z,17.37
2018-11-04T10:14:39.900Z,16.17
2018-11-04T10:15:43.218Z,15.58
2018-11-04T10:16:46.552Z,15.10
2018-11-04T10:17:49.915Z,16.00
2018-11-04T10:18:53.342Z,16.10
2018-11-04T10:19:56.994Z,16.52
2018-11-04T10:21:00.212Z,17.67
2018-11-04T10:22:03.308Z,16.60
2018-11-04T10:23:13.404Z,19.17
2018-11-04T10:24:16.730Z,18.32
2018-11-04T10:25:20.068Z,16.00
2018-11-04T10:26:23.460Z,18.42
2018-11-04T10:27:26.836Z,16.40
2018-11-04T10:28:30.183Z,16.65
2018-11-04T10:29:33.511Z,16.15
2018-11-04T10:30:36.863Z,16.57
2018-11-04T10:31:40.272Z,16.02
2018-11-04T10:32:43.663Z,16.12
2018-11-04T10:33:46.971Z,16.15
2018-11-04T10:34:50.299Z,15.68
2018-11-04T10:35:53.656Z,14.28
2018-11-04T10:36:57.044Z,15.70
2018-11-04T10:38:00.380Z,14.58
2018-11-04T10:39:05.139Z,16.27
2018-11-04T10:40:10.159Z,17.12
2018-11-04T10:41:13.471Z,17.20
2018-11-04T10:42:16.884Z,18.23
2018-11-04T10:43:20.207Z,17.42
2018-11-04T10:44:23.519Z,17.90
2018-11-04T10:45:26.856Z,15.95
2018-11-04T10:46:30.176Z,16.30
2018-11-04T10:47:33.699Z,15.90
2018-11-04T10:48:37.020Z,16.40
2018-11-04T10:49:40.446Z,16.65
2018-11-04T10:50:43.752Z,16.57
2018-11-04T10:51:47.124Z,15.70
2018-11-04T10:52:50.443Z,16.17
2018-11-04T10:53:53.832Z,15.93
2018-11-04T10:54:57.210Z,17.40
2018-11-04T10:56:00.552Z,15.95
2018-11-04T10:57:04.004Z,15.75
2018-11-04T10:58:07.324Z,17.20
2018-11-04T10:59:10.641Z,17.52
2018-11-04T11:00:19.277Z,16.10
2018-11-04T11:01:22.594Z,17.45
2018-11-04T11:02:25.922Z,17.10
2018-11-04T11:03:29.277Z,17.17
2018-11-04T11:04:32.614Z,17.00
2018-11-04T11:05:35.999Z,16.87
2018-11-04T11:06:39.327Z,17.30
2018-11-04T11:07:42.659Z,18.17
2018-11-04T11:08:45.982Z,17.50
2018-11-04T11:09:49.348Z,17.87
2018-11-04T11:10:52.740Z,19.00
2018-11-04T11:11:56.055Z,19.25
2018-11-04T11:12:59.370Z,16.87
2018-11-04T11:14:02.712Z,18.12
2018-11-04T11:15:06.768Z,17.95
2018-11-04T11:16:10.141Z,19.73
2018-11-04T11:17:13.469Z,17.65
2018-11-04T11:18:16.793Z,18.27
2018-11-04T11:19:20.115Z,16.48
2018-11-04T11:20:23.428Z,16.73
2018-11-04T11:21:26.816Z,18.52
2018-11-04T11:22:30.204Z,17.80
2018-11-04T11:23:33.504Z,18.30
2018-11-04T11:24:36.845Z,18.60
2018-11-04T11:25:40.182Z,17.32
2018-11-04T11:26:43.543Z,18.45
2018-11-04T11:27:46.889Z,16.15
2018-11-04T11:28:50.202Z,16.82
2018-11-04T11:29:53.575Z,16.10
2018-11-04T11:30:56.884Z,15.78
2018-11-04T11:32:00.263Z,15.50
2018-11-04T11:33:03.698Z,16.67
2018-11-04T11:34:07.087Z,16.62
2018-11-04T11:35:10.411Z,17.45
2018-11-04T11:36:13.773Z,16.80
2018-11-04T11:37:17.137Z,17.60
2018-11-04T11:38:20.560Z,16.35
2018-11-04T11:39:23.879Z,16.62
2018-11-04T11:40:27.200Z,16.02
2018-11-04T11:41:30.559Z,16.07
2018-11-04T11:42:33.873Z,16.40
2018-11-04T11:43:37.208Z,15.20
2018-11-04T11:44:40.592Z,16.70
2018-11-04T11:45:43.891Z,15.88
2018-11-04T11:46:47.268Z,17.37
2018-11-04T11:47:50.595Z,16.45
2018-11-04T11:48:53.947Z,15.80
2018-11-04T11:49:57.276Z,17.27
2018-11-04T11:51:00.605Z,15.20
2018-11-04T11:52:04.028Z,17.70
2018-11-04T11:53:07.342Z,16.32
2018-11-04T11:54:10.666Z,15.72
2018-11-04T11:55:13.991Z,17.55
2018-11-04T11:56:17.324Z,17.00
2018-11-04T11:57:20.719Z,17.30
2018-11-04T11:58:24.039Z,17.45
2018-11-04T11:59:27.477Z,16.85
2018-11-04T12:00:30.755Z,15.60
2018-11-04T12:01:34.189Z,16.93
2018-11-04T12:02:38.172Z,15.23
2018-11-04T12:03:41.495Z,16.10
2018-11-04T12:04:44.878Z,16.85
2018-11-04T12:05:48.208Z,18.37
2018-11-04T12:06:51.605Z,16.52
2018-11-04T12:07:54.955Z,15.28
2018-11-04T12:08:58.271Z,16.00
2018-11-04T12:10:01.612Z,16.60
2018-11-04T12:11:05.668Z,14.70
2018-11-04T12:12:09.045Z,15.93
2018-11-04T12:13:12.372Z,15.18
2018-11-04T12:14:15.692Z,15.43
2018-11-04T12:15:19.013Z,15.58
2018-11-04T12:16:22.338Z,14.28
2018-11-04T12:17:25.714Z,14.90
2018-11-04T12:18:29.056Z,15.05
2018-11-04T12:19:32.392Z,15.08
2018-11-04T12:20:35.722Z,13.75
2018-11-04T12:21:39.109Z,15.15
2018-11-04T12:22:42.608Z,16.52
2018-11-04T12:23:45.992Z,14.43
2018-11-04T12:24:49.320Z,14.15
2018-11-04T12:25:52.648Z,13.95
2018-11-04T12:26:55.999Z,14.78
2018-11-04T12:27:59.502Z,15.55
2018-11-04T12:29:02.831Z,15.50
2018-11-04T12:30:08.467Z,13.80
2018-11-04T12:31:11.903Z,15.15
2018-11-04T12:32:15.306Z,35.17
2018-11-04T12:33:18.692Z,25.72
2018-11-04T12:34:22.011Z,20.43
2018-11-04T12:35:25.465Z,14.68
2018-11-04T12:36:28.695Z,14.10
2018-11-04T12:37:32.056Z,12.30
2018-11-04T12:38:35.486Z,13.60
2018-11-04T12:39:38.821Z,11.83
2018-11-04T12:40:42.152Z,10.65
2018-11-04T12:41:45.483Z,10.05
2018-11-04T12:42:48.825Z,10.43
2018-11-04T12:43:52.211Z,8.90
2018-11-04T12:44:55.518Z,9.20
2018-11-04T12:45:58.851Z,8.80
2018-11-04T12:47:02.220Z,10.03
2018-11-04T12:48:05.603Z,8.65
2018-11-04T12:49:08.984Z,9.40
2018-11-04T12:50:13.116Z,8.10
2018-11-04T12:51:16.457Z,9.53
2018-11-04T12:52:19.828Z,9.83
2018-11-04T12:53:23.148Z,8.18
2018-11-04T12:54:26.532Z,7.45
2018-11-04T12:55:29.858Z,9.60
2018-11-04T12:56:33.175Z,9.18
2018-11-04T12:57:36.612Z,9.18
2018-11-04T12:58:39.927Z,9.00
2018-11-04T12:59:43.307Z,9.30
2018-11-04T13:00:46.643Z,10.23
2018-11-04T13:01:50.052Z,8.70
2018-11-04T13:02:53.468Z,9.40
2018-11-04T13:03:56.795Z,9.38
2018-11-04T13:05:00.118Z,8.98
2018-11-04T13:06:03.436Z,9.90
2018-11-04T13:07:06.888Z,9.48
2018-11-04T13:08:10.260Z,8.75
2018-11-04T13:09:13.617Z,8.45
2018-11-04T13:10:16.996Z,9.15
2018-11-04T13:11:20.372Z,8.45
2018-11-04T13:12:23.672Z,7.85
2018-11-04T13:13:27.120Z,8.08
2018-11-04T13:14:30.447Z,8.08
2018-11-04T13:15:33.808Z,8.75
2018-11-04T13:16:37.123Z,8.40
2018-11-04T13:17:40.618Z,8.75
2018-11-04T13:18:43.996Z,9.00
2018-11-04T13:19:47.320Z,8.98
2018-11-04T13:20:50.631Z,9.00
2018-11-04T13:21:53.955Z,8.55
2018-11-04T13:22:57.285Z,8.33
2018-11-04T13:24:00.664Z,8.30
2018-11-04T13:25:04.035Z,8.50
2018-11-04T13:26:07.385Z,8.23
2018-11-04T13:27:10.782Z,9.70
2018-11-04T13:28:14.093Z,9.83
2018-11-04T13:29:17.512Z,9.75
2018-11-04T13:30:20.829Z,9.20
2018-11-04T13:31:24.151Z,8.70
2018-11-04T13:32:27.660Z,9.63
2018-11-04T13:33:30.999Z,10.38
2018-11-04T13:34:34.355Z,9.83
2018-11-04T13:35:37.672Z,8.78
2018-11-04T13:36:41.031Z,10.13
2018-11-04T13:37:44.351Z,10.03
2018-11-04T13:38:47.660Z,9.70
2018-11-04T13:39:50.992Z,9.08